createdAt,value
2023-01-19T00:02:29.003Z,6.92
2023-01-19T00:07:57.088Z,6.78
2023-01-19T00:10:38.111Z,6.79
2023-01-19T00:13:16.115Z,6.87
2023-01-19T00:16:03.329Z,6.81
2023-01-19T00:18:37.951Z,7.25
2023-01-19T00:21:24.878Z,7.06
2023-01-19T00:24:06.103Z,7.11
2023-01-19T00:26:44.011Z,7.00
2023-01-19T00:29:27.692Z,7.12
2023-01-19T00:32:02.751Z,7.08
2023-01-19T00:34:47.511Z,6.88
2023-01-19T00:37:26.386Z,6.88
2023-01-19T00:40:06.426Z,6.82
2023-01-19T00:42:53.606Z,6.77
2023-01-19T00:45:54.300Z,6.65
2023-01-19T00:48:24.973Z,7.25
2023-01-19T00:51:00.967Z,7.35
2023-01-19T00:56:42.876Z,7.39
2023-01-19T00:59:11.224Z,7.42
2023-01-19T01:01:45.240Z,7.19
2023-01-19T01:04:20.812Z,7.44
2023-01-19T01:06:47.935Z,7.61
2023-01-19T01:09:20.745Z,7.61
2023-01-19T01:11:51.210Z,7.42
2023-01-19T01:14:18.300Z,7.69
2023-01-19T01:16:45.544Z,7.90
2023-01-19T01:19:13.767Z,7.55
2023-01-19T01:21:47.130Z,7.21
2023-01-19T01:26:58.134Z,7.35
2023-01-19T01:29:25.077Z,7.76
2023-01-19T01:32:17.115Z,7.49
2023-01-19T01:34:54.599Z,7.02
2023-01-19T01:37:22.552Z,6.85
2023-01-19T01:40:01.428Z,6.96
2023-01-19T01:42:39.717Z,7.06
2023-01-19T01:45:32.388Z,7.54
2023-01-19T01:48:28.227Z,7.30
2023-01-19T01:51:27.478Z,7.14
2023-01-19T01:54:26.605Z,7.21
2023-01-19T02:00:03.329Z,8.60
2023-01-19T02:02:52.218Z,9.51
2023-01-19T02:05:34.300Z,10.25
2023-01-19T02:08:38.657Z,10.58
2023-01-19T02:11:31.185Z,10.90
2023-01-19T02:14:03.957Z,9.71
2023-01-19T02:16:32.413Z,10.18
2023-01-19T02:19:14.108Z,8.78
2023-01-19T02:22:12.023Z,7.82
2023-01-19T02:24:42.827Z,7.36
2023-01-19T02:27:11.751Z,7.18
2023-01-19T02:29:54.390Z,6.91
2023-01-19T02:32:59.502Z,7.07
2023-01-19T02:35:39.665Z,6.97
2023-01-19T02:38:07.976Z,6.93
2023-01-19T02:40:38.414Z,7.58
2023-01-19T02:43:08.989Z,8.16
2023-01-19T02:45:37.920Z,9.10
2023-01-19T02:48:06.306Z,9.69
2023-01-19T02:51:06.735Z,10.19
2023-01-19T02:53:58.779Z,9.84
2023-01-19T02:57:17.408Z,9.79
2023-01-19T03:00:08.653Z,9.41
2023-01-19T03:03:03.622Z,8.59
2023-01-19T03:05:55.222Z,9.49
2023-01-19T03:08:52.121Z,10.23
2023-01-19T03:11:51.883Z,10.71
2023-01-19T03:14:26.959Z,10.73
2023-01-19T03:17:07.906Z,10.03
2023-01-19T03:19:42.338Z,8.78
2023-01-19T03:22:29.793Z,8.11
2023-01-19T03:25:01.569Z,8.43
2023-01-19T03:27:40.992Z,8.97
2023-01-19T03:30:23.620Z,9.72
2023-01-19T03:33:42.660Z,9.85
2023-01-19T03:36:42.732Z,10.00
2023-01-19T03:39:11.809Z,10.20
2023-01-19T03:45:01.407Z,9.46
2023-01-19T03:50:32.796Z,9.86
2023-01-19T03:53:08.778Z,8.96
2023-01-19T03:55:37.824Z,9.82
2023-01-19T03:58:04.834Z,10.21
2023-01-19T04:00:37.069Z,10.40
2023-01-19T04:03:05.437Z,9.26
2023-01-19T04:05:35.555Z,9.16
2023-01-19T04:08:05.214Z,8.67
2023-01-19T04:10:37.672Z,7.98
2023-01-19T04:16:20.714Z,7.99
2023-01-19T04:18:48.574Z,9.32
2023-01-19T04:21:26.587Z,10.22
2023-01-19T04:23:56.231Z,10.81
2023-01-19T04:26:34.528Z,11.00
2023-01-19T04:29:01.328Z,9.64
2023-01-19T04:31:30.240Z,8.72
2023-01-19T04:34:05.662Z,8.60
2023-01-19T04:36:46.858Z,7.82
2023-01-19T04:39:16.863Z,7.42
2023-01-19T04:41:44.214Z,7.11
2023-01-19T04:44:17.053Z,7.26
2023-01-19T04:46:48.229Z,8.24
2023-01-19T04:49:56.144Z,7.84
2023-01-19T04:53:07.825Z,7.65
2023-01-19T04:56:29.094Z,7.50
2023-01-19T04:58:58.514Z,7.37
2023-01-19T05:01:26.187Z,8.71
2023-01-19T05:03:53.936Z,9.63
2023-01-19T05:06:32.757Z,9.62
2023-01-19T05:09:40.039Z,8.99
2023-01-19T05:12:07.036Z,9.13
2023-01-19T05:14:34.943Z,9.75
2023-01-19T05:17:14.622Z,10.34
2023-01-19T05:19:47.940Z,11.03
2023-01-19T05:22:18.673Z,11.39
2023-01-19T05:24:45.446Z,11.65
2023-01-19T05:27:12.694Z,11.05
2023-01-19T05:29:42.455Z,10.36
2023-01-19T05:32:17.858Z,8.94
2023-01-19T05:34:48.534Z,8.96
2023-01-19T05:37:22.765Z,8.79
2023-01-19T05:39:49.661Z,8.35
2023-01-19T05:42:27.497Z,8.77
2023-01-19T05:45:09.326Z,8.98
2023-01-19T05:48:15.509Z,8.58
2023-01-19T05:50:46.317Z,8.81
2023-01-19T05:53:15.547Z,9.13
2023-01-19T05:55:45.651Z,8.76
2023-01-19T05:58:12.984Z,9.62
2023-01-19T06:00:48.897Z,10.15
2023-01-19T06:03:27.772Z,9.87
2023-01-19T06:06:05.840Z,9.16
2023-01-19T06:08:32.658Z,8.35
2023-01-19T06:11:08.860Z,7.60
2023-01-19T06:13:42.137Z,7.14
2023-01-19T06:16:12.606Z,6.87
2023-01-19T06:18:42.104Z,6.79
2023-01-19T06:21:21.381Z,6.97
2023-01-19T06:24:03.018Z,6.83
2023-01-19T06:26:29.872Z,6.96
2023-01-19T06:28:56.671Z,7.06
2023-01-19T06:31:23.523Z,7.04
2023-01-19T06:33:53.366Z,7.12
2023-01-19T06:36:26.206Z,7.15
2023-01-19T06:38:55.377Z,7.61
2023-01-19T06:41:22.111Z,8.46
2023-01-19T06:43:51.826Z,8.87
2023-01-19T06:46:29.289Z,7.93
2023-01-19T06:49:02.396Z,7.55
2023-01-19T06:51:35.900Z,7.12
2023-01-19T06:56:56.180Z,6.67
2023-01-19T06:59:22.968Z,6.67
2023-01-19T07:01:50.680Z,6.68
2023-01-19T07:04:17.761Z,7.14
2023-01-19T07:06:47.705Z,7.79
2023-01-19T07:09:46.366Z,7.86
2023-01-19T07:12:22.112Z,8.54
2023-01-19T07:14:51.130Z,9.24
2023-01-19T07:18:06.641Z,8.41
2023-01-19T07:20:50.660Z,8.25
2023-01-19T07:23:26.826Z,8.56
2023-01-19T07:26:09.379Z,8.34
2023-01-19T07:29:04.555Z,7.74
2023-01-19T07:31:31.643Z,8.37
2023-01-19T07:33:58.709Z,8.99
2023-01-19T07:36:54.238Z,9.61
2023-01-19T07:39:56.703Z,8.86
2023-01-19T07:43:24.370Z,8.34
2023-01-19T07:46:04.677Z,7.74
2023-01-19T07:48:33.380Z,7.77
2023-01-19T07:51:30.854Z,7.45
2023-01-19T07:54:08.604Z,7.72
2023-01-19T07:57:01.706Z,7.47
2023-01-19T07:59:39.754Z,7.28
2023-01-19T08:02:16.316Z,7.05
2023-01-19T08:04:47.238Z,7.04
2023-01-19T08:07:16.286Z,7.09
2023-01-19T08:09:43.332Z,6.87
2023-01-19T08:12:10.682Z,6.72
2023-01-19T08:15:04.121Z,6.79
2023-01-19T08:17:30.999Z,7.08
2023-01-19T08:20:00.045Z,6.91
2023-01-19T08:22:34.917Z,6.87
2023-01-19T08:25:16.825Z,6.77
2023-01-19T08:27:54.555Z,6.46
2023-01-19T08:30:28.040Z,6.54
2023-01-19T08:33:25.778Z,6.49
2023-01-19T08:35:56.696Z,6.64
2023-01-19T08:38:30.495Z,6.56
2023-01-19T08:40:59.634Z,6.62
2023-01-19T08:43:28.837Z,6.72
2023-01-19T08:45:58.910Z,6.65
2023-01-19T08:48:26.139Z,6.56
2023-01-19T08:51:11.734Z,6.56
2023-01-19T08:54:00.404Z,6.80
2023-01-19T08:56:42.997Z,7.75
2023-01-19T08:59:23.291Z,7.77
2023-01-19T09:02:03.079Z,8.85
2023-01-19T09:04:30.615Z,9.06
2023-01-19T09:06:57.425Z,8.46
2023-01-19T09:10:00.902Z,7.76
2023-01-19T09:12:30.391Z,7.23
2023-01-19T09:15:00.275Z,7.28
2023-01-19T09:17:34.001Z,8.06
2023-01-19T09:20:06.186Z,7.81
2023-01-19T09:22:40.072Z,8.04
2023-01-19T09:25:10.925Z,8.49
2023-01-19T09:27:40.247Z,8.85
2023-01-19T09:30:13.340Z,8.33
2023-01-19T09:32:58.635Z,8.09
2023-01-19T09:35:35.762Z,7.95
2023-01-19T09:38:13.186Z,8.37
2023-01-19T09:40:49.296Z,8.26
2023-01-19T09:47:06.724Z,8.10
2023-01-19T09:50:06.398Z,7.91
2023-01-19T09:52:50.118Z,8.19
2023-01-19T09:55:33.554Z,7.77
2023-01-19T09:58:23.852Z,7.85
2023-01-19T10:01:15.918Z,7.51
2023-01-19T10:03:43.772Z,7.19
2023-01-19T10:09:44.721Z,7.16
2023-01-19T10:12:47.348Z,7.11
2023-01-19T10:15:52.529Z,7.04
2023-01-19T10:18:31.446Z,6.75
2023-01-19T10:21:17.127Z,6.85
2023-01-19T10:24:17.097Z,6.78
2023-01-19T10:26:53.957Z,6.86
2023-01-19T10:29:46.534Z,6.76
2023-01-19T10:32:28.847Z,6.35
2023-01-19T10:35:03.815Z,6.34
2023-01-19T10:37:41.436Z,6.58
2023-01-19T10:40:16.361Z,6.54
2023-01-19T10:42:43.292Z,6.60
2023-01-19T10:45:47.013Z,6.75
2023-01-19T10:48:20.840Z,6.74
2023-01-19T10:51:01.917Z,6.70
2023-01-19T10:53:29.045Z,6.84
2023-01-19T10:56:21.305Z,6.72
2023-01-19T10:58:54.531Z,6.56
2023-01-19T11:01:27.650Z,6.62
2023-01-19T11:04:12.879Z,6.57
2023-01-19T11:06:45.357Z,6.75
2023-01-19T11:09:43.663Z,6.67
2023-01-19T11:12:41.577Z,6.61
2023-01-19T11:15:48.245Z,6.53
2023-01-19T11:18:28.608Z,6.71
2023-01-19T11:20:58.162Z,6.77
2023-01-19T11:23:36.463Z,6.88
2023-01-19T11:26:08.632Z,6.85
2023-01-19T11:29:02.195Z,7.11
2023-01-19T11:31:39.435Z,7.08
2023-01-19T11:34:25.286Z,7.03
2023-01-19T11:37:15.766Z,7.07
2023-01-19T11:40:14.344Z,6.95
2023-01-19T11:42:41.288Z,6.85
2023-01-19T11:45:18.003Z,6.89
2023-01-19T11:48:34.607Z,6.95
2023-01-19T11:51:04.985Z,6.89
2023-01-19T11:53:35.966Z,7.08
2023-01-19T11:56:08.481Z,7.07
2023-01-19T11:58:39.887Z,7.12
2023-01-19T12:01:20.966Z,7.19
2023-01-19T12:04:11.328Z,6.98
2023-01-19T12:06:43.196Z,7.01
2023-01-19T12:09:10.079Z,7.07
2023-01-19T12:12:04.368Z,7.06
2023-01-19T12:15:01.165Z,7.06
2023-01-19T12:17:46.729Z,7.18
2023-01-19T12:23:53.330Z,6.94
2023-01-19T12:26:53.348Z,7.01
2023-01-19T12:29:42.083Z,6.70
2023-01-19T12:32:38.198Z,6.58
2023-01-19T12:36:04.123Z,6.68
2023-01-19T12:38:57.682Z,6.98
2023-01-19T12:41:32.466Z,7.12
2023-01-19T12:44:38.737Z,7.12
2023-01-19T12:47:42.539Z,6.76
2023-01-19T12:50:21.988Z,6.87
2023-01-19T12:53:02.254Z,6.97
2023-01-19T12:55:34.267Z,7.32
2023-01-19T12:58:23.389Z,7.15
2023-01-19T13:01:11.310Z,7.31
2023-01-19T13:04:20.075Z,7.37
2023-01-19T13:07:10.641Z,7.31
2023-01-19T13:09:39.533Z,6.81
2023-01-19T13:12:22.127Z,6.72
2023-01-19T13:14:51.171Z,6.75
2023-01-19T13:17:33.198Z,6.90
2023-01-19T13:20:46.589Z,6.90
2023-01-19T13:23:29.755Z,6.79
2023-01-19T13:26:20.128Z,6.72
2023-01-19T13:31:50.549Z,6.58
2023-01-19T13:34:45.611Z,6.74
2023-01-19T13:37:21.668Z,6.89
2023-01-19T13:39:55.668Z,6.77
2023-01-19T13:42:38.835Z,6.73
2023-01-19T13:45:12.405Z,6.75
2023-01-19T13:47:53.659Z,6.74
2023-01-19T13:51:08.398Z,6.62
2023-01-19T13:53:41.521Z,6.70
2023-01-19T13:59:32.887Z,6.60
2023-01-19T14:02:21.756Z,6.51
2023-01-19T14:04:49.276Z,6.61
2023-01-19T14:07:38.413Z,6.90
2023-01-19T14:10:25.749Z,6.49
2023-01-19T14:13:41.506Z,6.66
2023-01-19T14:16:52.928Z,6.67
2023-01-19T14:20:18.294Z,6.43
2023-01-19T14:22:55.553Z,6.40
2023-01-19T14:25:46.177Z,6.58
2023-01-19T14:28:46.521Z,6.54
2023-01-19T14:31:20.977Z,6.76
2023-01-19T14:33:53.129Z,6.48
2023-01-19T14:36:39.674Z,6.27
2023-01-19T14:42:30.645Z,6.87
2023-01-19T14:48:32.072Z,6.99
2023-01-19T14:51:20.324Z,6.68
2023-01-19T14:54:01.304Z,6.75
2023-01-19T14:56:38.689Z,6.79
2023-01-19T14:59:14.711Z,6.77
2023-01-19T15:01:43.038Z,6.74
2023-01-19T15:04:28.772Z,6.48
2023-01-19T15:07:08.310Z,6.53
2023-01-19T15:09:35.572Z,6.50
2023-01-19T15:12:07.306Z,6.59
2023-01-19T15:14:40.453Z,6.55
2023-01-19T15:17:28.403Z,6.41
2023-01-19T15:20:08.932Z,6.08
2023-01-19T15:22:45.347Z,6.47
2023-01-19T15:28:20.452Z,6.20
2023-01-19T15:30:53.797Z,6.30
2023-01-19T15:33:46.747Z,6.38
2023-01-19T15:36:28.709Z,6.20
2023-01-19T15:38:57.310Z,6.28
2023-01-19T15:41:37.336Z,6.52
2023-01-19T15:44:16.394Z,6.42
2023-01-19T15:46:54.847Z,6.53
2023-01-19T15:49:27.701Z,6.57
2023-01-19T15:51:54.760Z,6.39
2023-01-19T15:54:27.137Z,6.06
2023-01-19T15:56:58.661Z,6.12
2023-01-19T15:59:36.536Z,6.27
2023-01-19T16:02:09.944Z,6.06
2023-01-19T16:07:49.523Z,5.78
2023-01-19T16:10:20.420Z,5.94
2023-01-19T16:12:54.363Z,6.20
2023-01-19T16:15:23.833Z,6.60
2023-01-19T16:17:53.580Z,6.83
2023-01-19T16:20:20.274Z,6.95
2023-01-19T16:22:47.058Z,6.46
2023-01-19T16:25:13.966Z,6.29
2023-01-19T16:28:07.040Z,6.27
2023-01-19T16:30:44.221Z,6.18
2023-01-19T16:33:14.698Z,6.30
2023-01-19T16:35:50.462Z,6.18
2023-01-19T16:38:43.938Z,6.24
2023-01-19T16:41:11.584Z,6.44
2023-01-19T16:43:38.423Z,6.19
2023-01-19T16:46:05.390Z,6.12
2023-01-19T16:48:32.723Z,6.11
2023-01-19T16:51:13.378Z,6.29
2023-01-19T16:53:48.391Z,6.11
2023-01-19T16:56:22.793Z,6.00
2023-01-19T16:59:41.686Z,6.53
2023-01-19T17:02:12.975Z,6.11
2023-01-19T17:04:51.215Z,5.63
2023-01-19T17:07:41.686Z,5.33
2023-01-19T17:10:31.712Z,4.94
2023-01-19T17:13:04.505Z,4.89
2023-01-19T17:15:31.889Z,5.17
2023-01-19T17:20:46.662Z,4.78
2023-01-19T17:23:24.758Z,4.65
2023-01-19T17:25:58.171Z,4.57
2023-01-19T17:28:26.192Z,4.42
2023-01-19T17:30:56.645Z,4.39
2023-01-19T17:33:25.113Z,4.32
2023-01-19T17:35:52.001Z,4.40
2023-01-19T17:38:18.854Z,4.71
2023-01-19T17:40:54.873Z,4.97
2023-01-19T17:43:37.937Z,4.94
2023-01-19T17:46:05.516Z,4.97
2023-01-19T17:48:35.821Z,4.61
2023-01-19T17:51:09.253Z,4.45
2023-01-19T17:53:38.571Z,4.52
2023-01-19T17:56:13.982Z,4.32
2023-01-19T17:58:41.381Z,4.11
2023-01-19T18:01:10.320Z,3.93
2023-01-19T18:03:37.550Z,3.96
2023-01-19T18:06:04.688Z,4.15
2023-01-19T18:08:32.754Z,3.93
2023-01-19T18:11:01.394Z,4.05
2023-01-19T18:13:38.487Z,4.12
2023-01-19T18:16:16.757Z,4.26
2023-01-19T18:18:59.241Z,4.66
2023-01-19T18:21:32.552Z,4.46
2023-01-19T18:24:07.977Z,4.52
2023-01-19T18:26:35.363Z,4.49
2023-01-19T18:29:02.405Z,4.19
2023-01-19T18:31:29.494Z,4.04
2023-01-19T18:34:01.322Z,3.86
2023-01-19T18:36:30.062Z,3.87
2023-01-19T18:38:56.871Z,3.74
2023-01-19T18:41:32.848Z,3.72
2023-01-19T18:44:02.622Z,3.71
2023-01-19T18:46:32.503Z,3.69
2023-01-19T18:48:59.343Z,3.61
2023-01-19T18:51:28.876Z,3.77
2023-01-19T18:53:57.516Z,3.54
2023-01-19T18:56:27.685Z,3.60
2023-01-19T18:58:54.741Z,3.69
2023-01-19T19:01:39.794Z,3.60
2023-01-19T19:04:08.339Z,3.42
2023-01-19T19:06:58.553Z,3.69
2023-01-19T19:09:23.347Z,3.89
2023-01-19T19:11:50.266Z,3.78
2023-01-19T19:14:21.493Z,4.13
2023-01-19T19:16:51.935Z,4.12
2023-01-19T19:19:24.729Z,3.83
2023-01-19T19:21:55.739Z,3.82
2023-01-19T19:24:22.670Z,4.17
2023-01-19T19:26:51.125Z,4.30
2023-01-19T19:29:24.063Z,4.64
2023-01-19T19:31:52.776Z,5.00
2023-01-19T19:34:19.840Z,4.74
2023-01-19T19:36:46.647Z,4.67
2023-01-19T19:39:16.510Z,4.71
2023-01-19T19:41:43.987Z,4.44
2023-01-19T19:44:14.578Z,4.62
2023-01-19T19:46:44.371Z,4.55
2023-01-19T19:49:11.289Z,4.26
2023-01-19T19:51:40.998Z,4.33
2023-01-19T19:54:07.809Z,4.41
2023-01-19T19:56:34.648Z,4.46
2023-01-19T19:59:01.858Z,4.49
2023-01-19T20:01:32.894Z,4.28
2023-01-19T20:04:11.209Z,4.28
2023-01-19T20:06:48.587Z,4.37
2023-01-19T20:09:16.678Z,4.32
2023-01-19T20:11:48.260Z,4.10
2023-01-19T20:14:16.441Z,4.08
2023-01-19T20:16:46.502Z,4.37
2023-01-19T20:19:13.340Z,4.30
2023-01-19T20:21:42.311Z,4.63
2023-01-19T20:24:13.888Z,4.49
2023-01-19T20:26:51.207Z,4.54
2023-01-19T20:29:22.964Z,4.25
2023-01-19T20:32:02.410Z,4.56
2023-01-19T20:34:33.536Z,4.16
2023-01-19T20:37:04.853Z,4.37
2023-01-19T20:39:34.968Z,4.26
2023-01-19T20:42:24.059Z,4.65
2023-01-19T20:44:53.121Z,4.49
2023-01-19T20:47:23.165Z,4.90
2023-01-19T20:49:52.959Z,4.74
2023-01-19T20:52:21.328Z,4.56
2023-01-19T20:54:48.441Z,4.42
2023-01-19T20:57:23.123Z,4.41
2023-01-19T20:59:50.101Z,4.50
2023-01-19T21:02:30.943Z,4.26
2023-01-19T21:05:06.965Z,3.96
2023-01-19T21:07:33.735Z,3.70
2023-01-19T21:10:00.501Z,3.96
2023-01-19T21:12:34.333Z,4.02
2023-01-19T21:15:03.070Z,4.02
2023-01-19T21:17:32.880Z,3.85
2023-01-19T21:20:06.083Z,3.70
2023-01-19T21:22:32.831Z,3.84
2023-01-19T21:24:59.542Z,4.03
2023-01-19T21:27:26.297Z,3.75
2023-01-19T21:29:53.357Z,3.83
2023-01-19T21:32:23.191Z,3.88
2023-01-19T21:34:51.288Z,3.70
2023-01-19T21:37:19.929Z,3.65
2023-01-19T21:39:46.785Z,3.54
2023-01-19T21:42:13.662Z,3.45
2023-01-19T21:44:42.840Z,3.41
2023-01-19T21:47:12.002Z,3.58
2023-01-19T21:49:38.862Z,3.28
2023-01-19T21:52:06.020Z,3.58
2023-01-19T21:54:43.933Z,3.96
2023-01-19T21:57:10.679Z,3.83
2023-01-19T21:59:46.264Z,4.02
2023-01-19T22:02:13.589Z,4.40
2023-01-19T22:04:40.950Z,4.41
2023-01-19T22:07:07.834Z,4.39
2023-01-19T22:09:58.996Z,4.10
2023-01-19T22:12:32.185Z,4.01
2023-01-19T22:14:59.836Z,3.72
2023-01-19T22:17:34.785Z,3.98
2023-01-19T22:25:29.354Z,3.77
2023-01-19T22:28:00.175Z,3.54
2023-01-19T22:30:57.297Z,3.57
2023-01-19T22:33:28.564Z,3.39
2023-01-19T22:36:11.249Z,3.50
2023-01-19T22:38:45.281Z,3.73
2023-01-19T22:41:14.930Z,3.60
2023-01-19T22:43:41.752Z,3.44
2023-01-19T22:46:13.321Z,3.23
2023-01-19T22:48:41.616Z,3.57
2023-01-19T22:51:08.672Z,3.61
2023-01-19T22:53:36.474Z,3.56
2023-01-19T22:56:18.590Z,3.39
2023-01-19T22:58:51.718Z,3.33
2023-01-19T23:01:24.202Z,3.66
2023-01-19T23:03:54.362Z,3.70
2023-01-19T23:06:23.576Z,3.78
2023-01-19T23:08:50.909Z,3.76
2023-01-19T23:11:23.525Z,4.09
2023-01-19T23:13:51.099Z,4.07
2023-01-19T23:16:18.703Z,3.92
2023-01-19T23:18:58.864Z,4.00
2023-01-19T23:21:29.116Z,4.22
2023-01-19T23:24:03.826Z,4.52
2023-01-19T23:26:42.069Z,4.70
2023-01-19T23:29:12.450Z,4.45
2023-01-19T23:32:05.544Z,4.61
2023-01-19T23:34:32.500Z,4.46
2023-01-19T23:37:06.815Z,4.76
2023-01-19T23:39:33.542Z,4.75
2023-01-19T23:42:00.534Z,4.46
2023-01-19T23:44:28.070Z,4.49
2023-01-19T23:46:54.816Z,4.67
2023-01-19T23:49:22.085Z,4.68
2023-01-19T23:51:51.362Z,4.60
2023-01-19T23:54:18.217Z,4.62
2023-01-19T23:56:48.193Z,4.56
2023-01-19T23:59:16.588Z,4.23
